createdAt,value
2022-09-12T00:00:12.392Z,81.57
2022-09-12T00:00:50.609Z,81.54
2022-09-12T00:01:28.466Z,82.04
2022-09-12T00:02:04.937Z,81.70
2022-09-12T00:03:12.560Z,81.94
2022-09-12T00:03:50.212Z,81.87
2022-09-12T00:04:26.954Z,81.84
2022-09-12T00:05:01.474Z,82.13
2022-09-12T00:05:46.403Z,82.11
2022-09-12T00:06:34.353Z,82.49
2022-09-12T00:07:17.762Z,81.69
2022-09-12T00:07:51.770Z,81.80
2022-09-12T00:08:25.412Z,81.57
2022-09-12T00:09:03.997Z,81.81
2022-09-12T00:09:38.441Z,81.50
2022-09-12T00:10:14.489Z,81.70
2022-09-12T00:10:56.434Z,81.85
2022-09-12T00:11:28.511Z,81.92
2022-09-12T00:12:02.679Z,82.08
2022-09-12T00:12:47.781Z,81.51
2022-09-12T00:13:19.304Z,81.79
2022-09-12T00:13:50.860Z,81.72
2022-09-12T00:14:31.496Z,81.82
2022-09-12T00:15:17.999Z,81.13
2022-09-12T00:15:52.186Z,80.89
2022-09-12T00:16:38.530Z,80.90
2022-09-12T00:18:03.899Z,81.35
2022-09-12T00:18:57.698Z,81.40
2022-09-12T00:19:35.612Z,81.70
2022-09-12T00:20:13.474Z,81.22
2022-09-12T00:20:56.721Z,81.39
2022-09-12T00:21:40.387Z,81.15
2022-09-12T00:22:15.360Z,81.96
2022-09-12T00:22:49.018Z,81.68
2022-09-12T00:23:28.493Z,81.83
2022-09-12T00:24:11.937Z,82.37
2022-09-12T00:24:49.239Z,82.02
2022-09-12T00:25:29.666Z,82.22
2022-09-12T00:26:12.899Z,82.52
2022-09-12T00:26:53.817Z,82.47
2022-09-12T00:27:31.209Z,82.22
2022-09-12T00:28:12.189Z,82.46
2022-09-12T00:28:56.048Z,82.12
2022-09-12T00:29:34.202Z,82.54
2022-09-12T00:30:09.380Z,82.41
2022-09-12T00:30:45.259Z,82.54
2022-09-12T00:31:23.520Z,82.12
2022-09-12T00:32:00.022Z,81.80
2022-09-12T00:32:39.771Z,82.34
2022-09-12T00:33:13.965Z,82.80
2022-09-12T00:33:50.853Z,82.50
2022-09-12T00:34:24.704Z,82.30
2022-09-12T00:35:23.902Z,81.99
2022-09-12T00:36:00.767Z,82.35
2022-09-12T00:36:32.462Z,82.14
2022-09-12T00:37:21.556Z,82.06
2022-09-12T00:37:55.591Z,82.01
2022-09-12T00:38:27.301Z,81.93
2022-09-12T00:39:07.467Z,81.84
2022-09-12T00:39:39.523Z,82.08
2022-09-12T00:40:17.184Z,82.15
2022-09-12T00:40:53.789Z,82.17
2022-09-12T00:41:31.414Z,82.11
2022-09-12T00:42:13.592Z,82.19
2022-09-12T00:42:45.385Z,82.03
2022-09-12T00:43:41.243Z,81.87
2022-09-12T00:44:20.864Z,82.54
2022-09-12T00:44:54.080Z,82.27
2022-09-12T00:45:39.557Z,82.46
2022-09-12T00:46:31.119Z,82.53
2022-09-12T00:47:15.448Z,82.26
2022-09-12T00:48:06.248Z,82.45
2022-09-12T00:49:15.421Z,82.68
2022-09-12T00:50:03.306Z,82.76
2022-09-12T00:50:42.377Z,82.49
2022-09-12T00:51:23.323Z,82.50
2022-09-12T00:52:28.811Z,82.01
2022-09-12T00:53:20.801Z,82.56
2022-09-12T00:53:57.129Z,82.69
2022-09-12T00:54:42.527Z,82.68
2022-09-12T00:55:32.701Z,82.36
2022-09-12T00:56:11.779Z,82.30
2022-09-12T00:56:47.218Z,82.84
2022-09-12T00:57:27.383Z,82.69
2022-09-12T00:58:13.698Z,82.70
2022-09-12T00:59:10.530Z,82.17
2022-09-12T01:00:04.860Z,82.10
2022-09-12T01:00:41.626Z,82.81
2022-09-12T01:01:18.323Z,82.71
2022-09-12T01:01:55.616Z,82.83
2022-09-12T01:02:32.828Z,82.45
2022-09-12T01:03:12.582Z,83.11
2022-09-12T01:03:44.798Z,82.94
2022-09-12T01:04:21.956Z,83.05
2022-09-12T01:04:59.619Z,82.65
2022-09-12T01:05:45.457Z,82.33
2022-09-12T01:06:35.385Z,83.20
2022-09-12T01:07:21.719Z,82.60
2022-09-12T01:08:05.727Z,82.30
2022-09-12T01:08:41.304Z,82.50
2022-09-12T01:09:26.875Z,83.17
2022-09-12T01:10:09.873Z,83.07
2022-09-12T01:10:52.616Z,83.30
2022-09-12T01:11:32.700Z,83.08
2022-09-12T01:12:11.012Z,83.02
2022-09-12T01:12:46.277Z,83.34
2022-09-12T01:13:26.322Z,82.94
2022-09-12T01:14:03.699Z,83.02
2022-09-12T01:14:38.639Z,82.73
2022-09-12T01:15:30.233Z,82.92
2022-09-12T01:16:17.203Z,82.90
2022-09-12T01:16:52.793Z,83.07
2022-09-12T01:17:39.789Z,83.16
2022-09-12T01:18:32.090Z,82.88
2022-09-12T01:19:40.268Z,82.44
2022-09-12T01:20:33.159Z,83.06
2022-09-12T01:21:52.237Z,82.43
2022-09-12T01:22:57.285Z,83.05
2022-09-12T01:23:51.847Z,82.75
2022-09-12T01:24:44.149Z,82.86
2022-09-12T01:25:36.104Z,82.97
2022-09-12T01:27:20.833Z,82.93
2022-09-12T01:28:18.850Z,83.25
2022-09-12T01:29:15.618Z,83.07
2022-09-12T01:30:05.681Z,83.63
2022-09-12T01:30:59.394Z,83.49
2022-09-12T01:32:10.383Z,82.95
2022-09-12T01:33:29.345Z,83.34
2022-09-12T01:34:19.789Z,83.22
2022-09-12T01:35:04.371Z,83.15
2022-09-12T01:35:57.935Z,82.96
2022-09-12T01:37:22.176Z,83.53
2022-09-12T01:38:46.655Z,83.28
2022-09-12T01:39:37.265Z,82.92
2022-09-12T01:40:43.853Z,83.29
2022-09-12T01:41:37.341Z,83.07
2022-09-12T01:42:32.283Z,83.30
2022-09-12T01:43:27.297Z,83.21
2022-09-12T01:44:24.840Z,83.32
2022-09-12T01:45:23.168Z,82.74
2022-09-12T01:46:27.256Z,82.88
2022-09-12T01:47:32.121Z,83.37
2022-09-12T01:48:18.396Z,83.19
2022-09-12T01:49:06.086Z,82.81
2022-09-12T01:50:11.242Z,82.60
2022-09-12T01:51:11.012Z,82.87
2022-09-12T01:51:53.072Z,82.92
2022-09-12T01:52:54.088Z,83.58
2022-09-12T01:53:47.998Z,83.17
2022-09-12T01:54:26.189Z,82.74
2022-09-12T01:55:25.338Z,82.71
2022-09-12T01:56:21.718Z,83.17
2022-09-12T01:57:01.844Z,83.35
2022-09-12T01:59:11.623Z,83.11
2022-09-12T02:00:00.856Z,83.06
2022-09-12T02:00:46.858Z,83.52
2022-09-12T02:01:35.360Z,83.24
2022-09-12T02:02:21.820Z,83.52
2022-09-12T02:03:16.260Z,83.38
2022-09-12T02:03:57.879Z,83.54
2022-09-12T02:05:02.468Z,83.20
2022-09-12T02:05:41.600Z,83.15
2022-09-12T02:06:29.003Z,83.64
2022-09-12T02:07:35.940Z,83.45
2022-09-12T02:08:19.717Z,83.44
2022-09-12T02:09:04.891Z,83.64
2022-09-12T02:09:54.390Z,83.34
2022-09-12T02:10:38.334Z,83.63
2022-09-12T02:11:12.280Z,83.44
2022-09-12T02:11:52.529Z,83.98
2022-09-12T02:12:31.682Z,84.14
2022-09-12T02:13:39.804Z,83.88
2022-09-12T02:14:23.535Z,83.49
2022-09-12T02:15:07.292Z,83.56
2022-09-12T02:15:49.518Z,83.63
2022-09-12T02:16:45.383Z,83.06
2022-09-12T02:17:31.574Z,83.67
2022-09-12T02:18:10.812Z,83.66
2022-09-12T02:18:53.958Z,83.33
2022-09-12T02:19:47.866Z,83.46
2022-09-12T02:20:49.216Z,83.11
2022-09-12T02:21:35.950Z,83.05
2022-09-12T02:22:21.473Z,83.41
2022-09-12T02:23:04.804Z,83.49
2022-09-12T02:23:49.663Z,83.52
2022-09-12T02:24:31.882Z,83.16
2022-09-12T02:25:14.676Z,83.64
2022-09-12T02:25:56.727Z,83.36
2022-09-12T02:26:44.239Z,83.34
2022-09-12T02:27:31.832Z,84.05
2022-09-12T02:28:17.867Z,83.86
2022-09-12T02:28:54.121Z,83.52
2022-09-12T02:29:36.107Z,84.10
2022-09-12T02:30:13.638Z,83.70
2022-09-12T02:31:04.501Z,83.85
2022-09-12T02:31:52.088Z,83.72
2022-09-12T02:32:37.384Z,84.22
2022-09-12T02:33:26.779Z,84.09
2022-09-12T02:34:27.672Z,83.88
2022-09-12T02:35:34.402Z,84.14
2022-09-12T02:36:24.412Z,84.09
2022-09-12T02:37:13.419Z,84.10
2022-09-12T02:38:17.592Z,83.62
2022-09-12T02:38:52.528Z,84.18
2022-09-12T02:39:32.104Z,84.14
2022-09-12T02:40:10.330Z,84.10
2022-09-12T02:40:49.073Z,84.71
2022-09-12T02:41:36.264Z,84.26
2022-09-12T02:42:16.238Z,84.21
2022-09-12T02:42:50.984Z,83.92
2022-09-12T02:43:29.201Z,83.89
2022-09-12T02:44:08.447Z,84.18
2022-09-12T02:44:53.404Z,84.01
2022-09-12T02:45:32.160Z,83.94
2022-09-12T02:46:11.862Z,83.78
2022-09-12T02:46:53.799Z,84.00
2022-09-12T02:47:43.239Z,83.81
2022-09-12T02:48:36.867Z,84.20
2022-09-12T02:50:17.215Z,83.80
2022-09-12T02:50:55.845Z,84.06
2022-09-12T02:51:30.623Z,83.76
2022-09-12T02:52:08.020Z,84.19
2022-09-12T02:52:45.672Z,83.64
2022-09-12T02:53:22.950Z,84.07
2022-09-12T02:54:05.642Z,83.94
2022-09-12T02:54:46.270Z,84.10
2022-09-12T02:55:20.613Z,83.42
2022-09-12T02:56:00.724Z,83.54
2022-09-12T02:56:37.491Z,84.01
2022-09-12T02:57:22.579Z,84.05
2022-09-12T02:57:57.112Z,84.33
2022-09-12T02:58:33.872Z,84.47
2022-09-12T02:59:17.827Z,84.51
2022-09-12T03:00:05.013Z,83.71
2022-09-12T03:00:53.959Z,83.95
2022-09-12T03:01:27.945Z,84.24
2022-09-12T03:02:19.514Z,83.92
2022-09-12T03:03:05.920Z,84.54
2022-09-12T03:04:08.988Z,83.99
2022-09-12T03:05:25.672Z,84.38
2022-09-12T03:06:29.043Z,83.92
2022-09-12T03:08:57.899Z,83.77
2022-09-12T03:10:03.145Z,83.69
2022-09-12T03:11:21.295Z,83.99
2022-09-12T03:12:21.576Z,84.14
2022-09-12T03:13:01.175Z,83.81
2022-09-12T03:13:56.113Z,83.96
2022-09-12T03:14:55.076Z,84.76
2022-09-12T03:16:04.253Z,83.89
2022-09-12T03:17:23.993Z,84.09
2022-09-12T03:18:52.616Z,84.74
2022-09-12T03:21:20.233Z,84.89
2022-09-12T03:23:41.309Z,84.94
2022-09-12T03:24:49.159Z,85.30
2022-09-12T03:25:53.674Z,84.41
2022-09-12T03:27:01.097Z,84.89
2022-09-12T03:27:54.146Z,84.74
2022-09-12T03:28:35.362Z,85.17
2022-09-12T03:29:22.827Z,84.93
2022-09-12T03:30:07.897Z,85.37
2022-09-12T03:30:53.877Z,84.68
2022-09-12T03:31:28.053Z,84.83
2022-09-12T03:32:08.199Z,85.10
2022-09-12T03:32:47.474Z,84.71
2022-09-12T03:33:33.595Z,85.42
2022-09-12T03:34:15.447Z,85.28
2022-09-12T03:34:53.268Z,84.66
2022-09-12T03:35:25.692Z,84.76
2022-09-12T03:36:04.282Z,85.38
2022-09-12T03:36:41.097Z,85.19
2022-09-12T03:37:18.128Z,85.73
2022-09-12T03:37:53.270Z,85.63
2022-09-12T03:38:36.007Z,85.40
2022-09-12T03:39:12.836Z,85.06
2022-09-12T03:39:57.314Z,85.20
2022-09-12T03:40:49.315Z,85.33
2022-09-12T03:41:25.677Z,85.32
2022-09-12T03:42:12.616Z,85.58
2022-09-12T03:42:46.352Z,85.61
2022-09-12T03:43:37.232Z,85.48
2022-09-12T03:44:11.857Z,85.26
2022-09-12T03:44:53.396Z,85.37
2022-09-12T03:45:29.628Z,85.30
2022-09-12T03:46:01.365Z,85.02
2022-09-12T03:46:40.982Z,84.93
2022-09-12T03:47:15.653Z,84.92
2022-09-12T03:47:49.702Z,84.72
2022-09-12T03:48:26.868Z,85.14
2022-09-12T03:49:04.845Z,85.05
2022-09-12T03:49:53.800Z,84.32
2022-09-12T03:50:28.024Z,84.67
2022-09-12T03:51:14.990Z,84.93
2022-09-12T03:51:49.301Z,84.51
2022-09-12T03:52:28.350Z,84.89
2022-09-12T03:53:06.145Z,85.52
2022-09-12T03:53:40.584Z,85.13
2022-09-12T03:54:16.613Z,85.12
2022-09-12T03:54:55.934Z,84.98
2022-09-12T03:55:35.682Z,84.73
2022-09-12T03:56:18.628Z,85.30
2022-09-12T03:56:52.784Z,85.19
2022-09-12T03:57:31.321Z,85.58
2022-09-12T03:58:10.382Z,85.16
2022-09-12T03:58:58.048Z,85.03
2022-09-12T03:59:32.907Z,85.21
2022-09-12T04:00:19.052Z,85.27
2022-09-12T04:00:56.588Z,85.07
2022-09-12T04:01:30.515Z,84.73
2022-09-12T04:02:17.189Z,84.89
2022-09-12T04:02:50.760Z,85.23
2022-09-12T04:03:30.507Z,85.45
2022-09-12T04:04:04.712Z,85.14
2022-09-12T04:04:53.602Z,84.86
2022-09-12T04:05:37.533Z,85.25
2022-09-12T04:06:10.637Z,85.34
2022-09-12T04:06:49.532Z,85.31
2022-09-12T04:07:25.151Z,85.62
2022-09-12T04:08:09.432Z,84.68
2022-09-12T04:08:44.876Z,84.86
2022-09-12T04:09:17.576Z,84.92
2022-09-12T04:09:53.827Z,85.30
2022-09-12T04:10:28.271Z,84.96
2022-09-12T04:11:15.212Z,85.58
2022-09-12T04:11:49.284Z,84.98
2022-09-12T04:12:34.050Z,85.07
2022-09-12T04:13:14.612Z,84.72
2022-09-12T04:13:52.419Z,85.16
2022-09-12T04:14:28.876Z,84.68
2022-09-12T04:15:16.160Z,85.21
2022-09-12T04:16:09.481Z,85.37
2022-09-12T04:16:50.689Z,85.26
2022-09-12T04:17:25.292Z,85.35
2022-09-12T04:18:30.351Z,85.59
2022-09-12T04:19:06.638Z,85.39
2022-09-12T04:19:50.369Z,85.54
2022-09-12T04:20:28.392Z,86.01
2022-09-12T04:21:07.082Z,85.65
2022-09-12T04:21:45.550Z,85.82
2022-09-12T04:22:22.607Z,85.82
2022-09-12T04:23:05.793Z,85.34
2022-09-12T04:23:44.798Z,85.61
2022-09-12T04:24:19.225Z,85.71
2022-09-12T04:25:00.404Z,85.58
2022-09-12T04:25:36.548Z,86.02
2022-09-12T04:26:16.515Z,86.24
2022-09-12T04:27:07.748Z,85.80
2022-09-12T04:27:47.319Z,86.22
2022-09-12T04:28:37.535Z,86.39
2022-09-12T04:29:23.417Z,86.31
2022-09-12T04:30:10.438Z,86.42
2022-09-12T04:30:44.373Z,86.43
2022-09-12T04:31:27.473Z,86.27
2022-09-12T04:32:01.678Z,85.88
2022-09-12T04:32:40.833Z,86.34
2022-09-12T04:33:12.342Z,86.60
2022-09-12T04:33:47.158Z,86.16
2022-09-12T04:34:18.806Z,85.86
2022-09-12T04:34:52.304Z,85.85
2022-09-12T04:35:24.043Z,86.66
2022-09-12T04:35:55.685Z,86.62
2022-09-12T04:36:28.765Z,86.24
2022-09-12T04:37:00.569Z,86.30
2022-09-12T04:37:32.029Z,86.37
2022-09-12T04:38:03.575Z,86.22
2022-09-12T04:38:36.502Z,86.47
2022-09-12T04:39:08.345Z,85.94
2022-09-12T04:39:40.003Z,86.05
2022-09-12T04:40:11.591Z,86.23
2022-09-12T04:40:43.368Z,86.38
2022-09-12T04:41:18.472Z,85.98
2022-09-12T04:41:50.121Z,86.54
2022-09-12T04:42:23.074Z,85.93
2022-09-12T04:42:56.189Z,85.98
2022-09-12T04:43:28.165Z,86.13
2022-09-12T04:44:04.897Z,85.79
2022-09-12T04:44:38.700Z,86.13
2022-09-12T04:45:10.560Z,86.15
2022-09-12T04:45:42.104Z,85.99
2022-09-12T04:46:16.673Z,86.00
2022-09-12T04:46:48.300Z,85.66
2022-09-12T04:47:20.165Z,85.58
2022-09-12T04:47:52.453Z,85.66
2022-09-12T04:48:27.089Z,85.64
2022-09-12T04:48:58.733Z,85.64
2022-09-12T04:49:30.246Z,86.42
2022-09-12T04:50:01.914Z,86.40
2022-09-12T04:50:33.538Z,86.63
2022-09-12T04:51:14.774Z,86.66
2022-09-12T04:51:49.314Z,85.98
2022-09-12T04:52:27.688Z,86.01
2022-09-12T04:53:08.866Z,85.85
2022-09-12T04:53:45.759Z,86.77
2022-09-12T04:54:22.169Z,86.37
2022-09-12T04:54:56.759Z,86.52
2022-09-12T04:55:35.752Z,86.68
2022-09-12T04:56:14.415Z,86.99
2022-09-12T04:56:48.928Z,86.66
2022-09-12T04:57:20.732Z,86.55
2022-09-12T04:57:52.999Z,86.64
2022-09-12T04:58:26.190Z,86.55
2022-09-12T04:59:09.736Z,86.83
2022-09-12T04:59:41.491Z,86.89
2022-09-12T05:00:16.052Z,86.97
2022-09-12T05:00:49.701Z,87.31
2022-09-12T05:01:22.995Z,87.20
2022-09-12T05:01:56.025Z,87.13
2022-09-12T05:02:28.976Z,86.94
2022-09-12T05:03:02.681Z,87.40
2022-09-12T05:03:34.743Z,87.61
2022-09-12T05:04:06.344Z,87.72
2022-09-12T05:04:40.738Z,87.38
2022-09-12T05:05:12.573Z,86.88
2022-09-12T05:05:44.312Z,86.57
2022-09-12T05:06:19.236Z,86.57
2022-09-12T05:06:50.744Z,86.99
2022-09-12T05:07:28.376Z,87.01
2022-09-12T05:08:00.092Z,87.17
2022-09-12T05:08:31.754Z,87.13
2022-09-12T05:09:05.385Z,87.41
2022-09-12T05:09:42.451Z,86.76
2022-09-12T05:10:18.191Z,87.17
2022-09-12T05:10:54.433Z,86.67
2022-09-12T05:12:02.158Z,86.78
2022-09-12T05:42:56.133Z,88.24
2022-09-12T05:43:27.694Z,88.16
2022-09-12T05:44:07.091Z,88.42
2022-09-12T05:44:38.580Z,88.17
2022-09-12T05:45:10.175Z,88.25
2022-09-12T05:45:42.138Z,88.65
2022-09-12T05:46:16.409Z,88.22
2022-09-12T05:46:50.778Z,88.42
2022-09-12T05:57:12.865Z,88.58
2022-09-12T06:32:12.186Z,88.84
2022-09-12T06:32:43.623Z,89.14
2022-09-12T06:33:15.587Z,89.16
2022-09-12T06:33:49.986Z,89.13
2022-09-12T06:34:21.446Z,88.76
2022-09-12T06:34:52.830Z,89.33
2022-09-12T06:37:25.797Z,88.53
2022-09-12T06:37:57.179Z,89.30
2022-09-12T06:39:48.772Z,89.00
2022-09-12T06:40:20.345Z,88.85
2022-09-12T06:41:32.476Z,88.52
2022-09-12T06:42:03.969Z,89.10
2022-09-12T06:42:35.447Z,89.28
2022-09-12T06:43:07.015Z,89.21
2022-09-12T06:43:39.905Z,89.46
2022-09-12T06:44:17.818Z,89.41
2022-09-12T06:44:50.422Z,89.37
2022-09-12T06:45:22.778Z,89.74
2022-09-12T06:45:54.289Z,89.78
2022-09-12T06:46:27.105Z,89.80
2022-09-12T06:46:58.754Z,89.57
2022-09-12T06:47:30.242Z,90.11
2022-09-12T06:48:02.655Z,89.80
2022-09-12T06:48:38.325Z,89.50
2022-09-12T06:49:13.352Z,89.65
2022-09-12T06:49:44.771Z,89.70
2022-09-12T06:50:16.264Z,89.75
2022-09-12T06:51:02.403Z,89.52
2022-09-12T06:51:36.210Z,89.46
2022-09-12T06:52:07.605Z,89.48
2022-09-12T06:52:39.058Z,89.40
2022-09-12T06:53:10.471Z,89.12
2022-09-12T06:53:44.212Z,89.17
2022-09-12T06:54:17.019Z,89.03
2022-09-12T06:54:49.086Z,89.33
2022-09-12T06:55:23.573Z,89.17
2022-09-12T06:56:00.713Z,88.76
2022-09-12T06:56:32.241Z,89.13
2022-09-12T06:57:03.854Z,88.96
2022-09-12T06:57:36.976Z,88.88
2022-09-12T06:58:08.438Z,88.65
2022-09-12T06:58:40.964Z,88.86
2022-09-12T06:59:12.746Z,88.80
2022-09-12T06:59:44.825Z,89.02
2022-09-12T07:00:16.371Z,89.23
2022-09-12T07:00:47.790Z,88.72
2022-09-12T07:01:21.946Z,89.21
2022-09-12T07:01:53.532Z,88.57
2022-09-12T07:02:25.745Z,88.95
2022-09-12T07:02:57.224Z,89.31
2022-09-12T07:03:29.138Z,88.71
2022-09-12T07:04:03.821Z,89.57
2022-09-12T07:04:36.618Z,89.35
2022-09-12T07:05:09.093Z,90.13
2022-09-12T07:05:40.500Z,90.22
2022-09-12T07:06:13.767Z,90.08
2022-09-12T07:06:45.167Z,90.43
2022-09-12T07:07:16.755Z,90.66
2022-09-12T07:08:00.267Z,90.61
2022-09-12T07:08:37.140Z,90.17
2022-09-12T07:09:18.477Z,90.04
2022-09-12T07:09:52.541Z,89.86
2022-09-12T07:10:31.309Z,89.72
2022-09-12T07:11:20.807Z,90.00
2022-09-12T07:11:52.227Z,90.11
2022-09-12T07:12:23.599Z,89.60
2022-09-12T07:12:55.041Z,89.56
2022-09-12T07:13:27.150Z,89.71
2022-09-12T07:14:03.198Z,89.90
2022-09-12T07:14:34.679Z,90.01
2022-09-12T07:15:06.684Z,91.15
2022-09-12T07:15:38.233Z,90.97
2022-09-12T07:16:17.311Z,90.42
2022-09-12T07:16:50.804Z,90.04
2022-09-12T07:17:22.256Z,90.41
2022-09-12T07:17:54.523Z,90.30
2022-09-12T07:18:26.061Z,89.95
2022-09-12T07:19:02.364Z,90.33
2022-09-12T07:19:37.013Z,90.85
2022-09-12T07:20:08.712Z,90.71
2022-09-12T07:20:40.673Z,89.91
2022-09-12T07:21:14.869Z,90.35
2022-09-12T07:21:46.352Z,90.51
2022-09-12T07:22:17.711Z,90.58
2022-09-12T07:22:50.575Z,90.13
2022-09-12T07:23:21.969Z,90.37
2022-09-12T07:23:55.237Z,90.85
2022-09-12T07:24:27.168Z,90.65
2022-09-12T07:24:59.025Z,90.21
2022-09-12T07:25:30.462Z,90.68
2022-09-12T07:26:02.562Z,90.93
2022-09-12T07:26:34.525Z,90.58
2022-09-12T07:27:05.887Z,90.75
2022-09-12T07:27:37.743Z,90.67
2022-09-12T07:28:09.137Z,90.66
2022-09-12T07:28:40.998Z,91.09
2022-09-12T07:30:08.643Z,90.25
2022-09-12T07:30:40.468Z,90.27
2022-09-12T07:31:17.671Z,90.09
2022-09-12T07:31:49.595Z,89.82
2022-09-12T07:32:23.538Z,89.84
2022-09-12T07:32:55.062Z,89.65
2022-09-12T07:33:29.598Z,89.27
2022-09-12T07:34:08.251Z,89.54
2022-09-12T07:34:40.622Z,89.52
2022-09-12T07:35:12.159Z,89.48
2022-09-12T07:35:47.692Z,89.76
2022-09-12T07:36:23.493Z,89.82
2022-09-12T07:36:58.101Z,90.31
2022-09-12T07:37:32.202Z,90.55
2022-09-12T07:38:04.073Z,90.63
2022-09-12T07:38:35.533Z,90.85
2022-09-12T07:39:06.958Z,90.19
2022-09-12T07:39:38.614Z,89.79
2022-09-12T07:40:11.802Z,89.94
2022-09-12T07:40:43.895Z,90.74
2022-09-12T07:41:21.629Z,90.43
2022-09-12T07:41:53.157Z,89.84
2022-09-12T07:42:24.696Z,89.33
2022-09-12T07:42:58.605Z,88.88
2022-09-12T07:43:34.023Z,89.28
2022-09-12T07:44:10.690Z,88.78
2022-09-12T07:44:42.237Z,89.06
2022-09-12T07:45:13.815Z,89.13
2022-09-12T07:45:45.272Z,88.74
2022-09-12T07:46:16.791Z,89.30
2022-09-12T07:46:48.171Z,89.52
2022-09-12T07:47:22.591Z,89.23
2022-09-12T07:47:59.276Z,89.16
2022-09-12T07:48:30.870Z,88.71
2022-09-12T07:49:03.250Z,88.70
2022-09-12T07:49:35.124Z,88.77
2022-09-12T07:50:07.071Z,88.64
2022-09-12T07:50:42.026Z,88.33
2022-09-12T07:51:17.439Z,88.33
2022-09-12T07:51:50.780Z,88.40
2022-09-12T07:52:22.255Z,88.52
2022-09-12T07:52:55.047Z,88.29
2022-09-12T07:53:30.761Z,88.53
2022-09-12T07:54:07.104Z,88.82
2022-09-12T07:54:38.760Z,88.16
2022-09-12T07:55:10.162Z,87.91
2022-09-12T07:55:41.720Z,88.38
2022-09-12T07:56:13.709Z,87.91
2022-09-12T07:56:45.792Z,88.22
2022-09-12T07:57:17.268Z,87.90
2022-09-12T07:57:53.827Z,87.52
2022-09-12T07:58:25.640Z,87.38
2022-09-12T07:58:57.245Z,86.62
2022-09-12T07:59:50.914Z,86.89
2022-09-12T08:00:20.330Z,86.99
2022-09-12T08:00:54.268Z,87.46
2022-09-12T08:01:26.458Z,87.08
2022-09-12T08:02:06.603Z,87.09
2022-09-12T08:02:39.517Z,87.03
2022-09-12T08:03:11.102Z,87.57
2022-09-12T08:03:44.715Z,86.76
2022-09-12T08:04:18.512Z,87.02
2022-09-12T08:04:51.439Z,87.47
2022-09-12T08:05:23.103Z,86.71
2022-09-12T08:05:54.834Z,86.50
2022-09-12T08:06:38.681Z,86.70
2022-09-12T08:07:15.950Z,86.92
2022-09-12T08:07:47.610Z,87.14
2022-09-12T08:08:18.984Z,86.60
2022-09-12T08:08:51.687Z,86.86
2022-09-12T08:09:23.078Z,86.82
2022-09-12T08:09:54.524Z,87.11
2022-09-12T08:10:25.962Z,87.15
2022-09-12T08:10:59.865Z,86.75
2022-09-12T08:11:31.339Z,86.90
2022-09-12T08:12:03.284Z,86.59
2022-09-12T08:12:35.171Z,86.36
2022-09-12T08:13:08.755Z,86.21
2022-09-12T08:13:43.036Z,86.23
2022-09-12T08:14:14.577Z,85.87
2022-09-12T08:14:46.543Z,86.49
2022-09-12T08:15:17.929Z,86.06
2022-09-12T08:15:49.414Z,85.90
2022-09-12T08:16:22.237Z,85.95
2022-09-12T08:16:53.661Z,86.14
2022-09-12T08:17:25.082Z,85.53
2022-09-12T08:17:56.456Z,85.13
2022-09-12T08:18:29.639Z,85.58
2022-09-12T08:19:02.435Z,84.77
2022-09-12T08:19:33.872Z,85.36
2022-09-12T08:20:05.733Z,85.66
2022-09-12T08:20:37.446Z,85.43
2022-09-12T08:21:23.998Z,85.27
2022-09-12T08:21:55.358Z,85.82
2022-09-12T08:22:26.729Z,85.22
2022-09-12T08:22:58.154Z,85.79
2022-09-12T08:23:30.255Z,87.32
2022-09-12T08:24:04.071Z,85.95
2022-09-12T08:24:35.542Z,85.59
2022-09-12T08:25:07.429Z,84.88
2022-09-12T08:25:38.819Z,84.58
2022-09-12T08:26:11.499Z,84.72
2022-09-12T08:26:43.234Z,84.57
2022-09-12T08:27:14.855Z,85.26
2022-09-12T08:27:46.876Z,84.60
2022-09-12T08:28:18.337Z,84.65
2022-09-12T08:28:50.003Z,84.73
2022-09-12T08:29:21.506Z,84.86
2022-09-12T08:29:53.660Z,84.19
2022-09-12T08:30:25.097Z,84.13
2022-09-12T08:31:12.987Z,83.97
2022-09-12T08:31:44.554Z,83.20
2022-09-12T08:32:15.974Z,83.72
2022-09-12T08:32:47.354Z,83.22
2022-09-12T08:33:19.403Z,83.94
2022-09-12T08:33:51.178Z,83.41
2022-09-12T08:34:22.721Z,83.03
2022-09-12T08:34:54.118Z,83.55
2022-09-12T08:35:25.432Z,83.18
2022-09-12T08:36:05.678Z,83.19
2022-09-12T08:36:37.069Z,82.67
2022-09-12T08:37:08.448Z,83.16
2022-09-12T08:37:40.528Z,82.94
2022-09-12T08:38:11.940Z,82.64
2022-09-12T08:38:45.646Z,81.93
2022-09-12T08:39:17.118Z,82.50
2022-09-12T08:39:48.613Z,82.27
2022-09-12T08:40:20.134Z,82.38
2022-09-12T08:41:01.007Z,82.07
2022-09-12T08:41:35.320Z,83.03
2022-09-12T08:42:07.310Z,83.87
2022-09-12T08:42:55.506Z,83.30
2022-09-12T08:43:52.022Z,83.00
2022-09-12T08:44:49.595Z,83.74
2022-09-12T08:45:34.670Z,82.98
2022-09-12T08:46:18.379Z,82.67
2022-09-12T08:47:10.758Z,81.63
2022-09-12T08:47:45.438Z,81.54
2022-09-12T08:48:16.883Z,80.59
2022-09-12T08:48:48.710Z,79.20
2022-09-12T08:49:31.066Z,79.55
2022-09-12T08:50:08.777Z,80.79
2022-09-12T08:50:49.251Z,80.27
2022-09-12T08:51:21.988Z,80.57
2022-09-12T08:51:55.167Z,80.20
2022-09-12T08:52:35.923Z,80.33
2022-09-12T08:53:15.918Z,80.49
2022-09-12T08:53:51.287Z,80.25
2022-09-12T08:54:28.775Z,80.63
2022-09-12T08:55:04.110Z,80.72
2022-09-12T08:55:38.164Z,80.69
2022-09-12T08:56:11.769Z,79.70
2022-09-12T08:56:43.391Z,79.95
2022-09-12T08:57:15.406Z,79.98
2022-09-12T08:57:46.821Z,79.54
2022-09-12T08:58:22.571Z,78.90
2022-09-12T08:58:53.975Z,78.42
2022-09-12T08:59:25.643Z,79.69
2022-09-12T08:59:57.192Z,78.93
2022-09-12T09:00:38.436Z,79.99
2022-09-12T09:01:19.079Z,78.76
2022-09-12T09:01:55.424Z,78.27
2022-09-12T09:02:57.253Z,78.45
2022-09-12T09:03:53.210Z,78.01
2022-09-12T09:04:31.020Z,76.81
2022-09-12T09:05:17.790Z,76.87
2022-09-12T09:05:59.178Z,77.32
2022-09-12T09:07:01.478Z,78.65
2022-09-12T09:07:54.951Z,79.34
2022-09-12T09:08:46.239Z,78.00
2022-09-12T09:09:32.789Z,76.85
2022-09-12T09:10:18.099Z,75.40
2022-09-12T09:11:13.960Z,76.17
2022-09-12T09:12:15.811Z,76.13
2022-09-12T09:13:12.115Z,76.08
2022-09-12T09:14:40.655Z,76.59
2022-09-12T09:15:26.932Z,76.39
2022-09-12T09:16:31.187Z,75.60
2022-09-12T09:17:03.268Z,75.81
2022-09-12T09:17:41.424Z,75.87
2022-09-12T09:18:23.228Z,76.53
2022-09-12T09:18:58.696Z,74.86
2022-09-12T09:19:40.686Z,74.65
2022-09-12T09:20:49.575Z,75.01
2022-09-12T09:21:38.265Z,75.30
2022-09-12T09:22:36.283Z,75.11
2022-09-12T09:23:22.195Z,75.15
2022-09-12T09:24:07.726Z,75.34
2022-09-12T09:24:53.749Z,75.19
2022-09-12T09:25:36.850Z,74.46
2022-09-12T09:26:17.767Z,74.78
2022-09-12T09:27:01.992Z,74.89
2022-09-12T09:28:04.410Z,75.77
2022-09-12T09:28:42.310Z,74.70
2022-09-12T09:29:22.550Z,75.30
2022-09-12T09:29:56.001Z,74.33
2022-09-12T09:30:28.622Z,74.89
2022-09-12T09:31:00.137Z,73.70
2022-09-12T09:31:37.711Z,73.62
2022-09-12T09:32:18.183Z,73.68
2022-09-12T09:32:54.098Z,72.67
2022-09-12T09:33:30.830Z,73.17
2022-09-12T09:34:13.000Z,73.17
2022-09-12T09:34:44.730Z,73.27
2022-09-12T09:35:24.847Z,72.52
2022-09-12T09:36:12.117Z,72.90
2022-09-12T09:36:50.993Z,73.20
2022-09-12T09:37:38.819Z,73.99
2022-09-12T09:38:25.417Z,73.87
2022-09-12T09:39:05.715Z,73.51
2022-09-12T09:39:49.100Z,73.73
2022-09-12T09:40:23.472Z,73.00
2022-09-12T09:41:17.098Z,72.68
2022-09-12T09:42:08.078Z,72.32
2022-09-12T09:42:51.576Z,73.79
2022-09-12T09:43:27.398Z,73.35
2022-09-12T09:43:59.852Z,72.22
2022-09-12T09:44:31.590Z,73.38
2022-09-12T09:45:11.970Z,72.73
2022-09-12T09:45:47.268Z,72.44
2022-09-12T09:46:19.549Z,72.37
2022-09-12T09:46:55.525Z,72.27
2022-09-12T09:47:27.015Z,71.71
2022-09-12T09:48:06.079Z,72.38
2022-09-12T09:48:41.911Z,71.31
2022-09-12T09:49:16.352Z,71.08
2022-09-12T09:49:47.812Z,70.92
2022-09-12T09:50:19.416Z,71.75
2022-09-12T09:50:51.370Z,71.24
2022-09-12T09:51:35.999Z,71.54
2022-09-12T09:52:08.568Z,70.90
2022-09-12T09:52:40.661Z,70.23
2022-09-12T09:53:29.495Z,70.11
2022-09-12T09:54:21.327Z,69.88
2022-09-12T09:54:58.354Z,70.87
2022-09-12T09:55:39.839Z,70.71
2022-09-12T09:56:35.112Z,70.39
2022-09-12T09:57:35.495Z,72.03
2022-09-12T09:58:06.905Z,71.68
2022-09-12T09:58:41.540Z,71.32
2022-09-12T09:59:19.015Z,70.26
2022-09-12T09:59:50.394Z,70.36
2022-09-12T10:00:21.982Z,71.50
2022-09-12T10:00:59.988Z,70.73
2022-09-12T10:01:31.531Z,70.04